TS55 weather

Public forecast

Using degrees Fahrenheit for public forecast. Weather courtesy of forecast.io.

Closest aviation weather report (METAR) to Bat Cave Field

Closest report is Randolph Air Force Base, 8.6 nm (16.0 km) S. Retrieved 2020/08/11 09:06 UTC (27 minutes ago):

KRND 110906Z AUTO 13004KT 10SM OVC010 25/24 A2998 RMK AO2 SLP142

Closest aviation forecast (TAF) to Bat Cave Field

Closest forecast is Randolph Air Force Base, 8.6 nm (16.0 km) S. Retrieved 2020/08/11 10:51 UTC (0 seconds ago):

TAF TAF KRND 110945Z 1110/1216 16009KT 9999 FEW008 BKN011 QNH3003INS TEMPO 1110/1114 BKN008 BECMG 1114/1115 18012G18KT 9999 SCT020 QNH2986INS BECMG 1208/1209 17009KT 9000 BR BKN011 QNH2998INS BECMG 1212/1213 VRB06KT 8000 BR BKN010 QNH2998INS BECMG 1214/1215 18010G15KT 9999 NSW FEW020 QNH3000INS TX38/1120Z TN25/1111Z